Olim IV — CFK9604 — position and weather

sailwx.info

Track history (hours):
 
Tides and Currents Weather Stations Pressure Air Temp Water Temp Dewpoint Dewpoint Depression Visibility Wind Speed Wind Dir Waves Ship Positions

Olim IV

Last reported at 2014-Sep-22 20:33 UTC. Time now 2014-Oct-02 12:39 UTC.
Position N 48°39' W 122°36'.
Warning: this ship's position is 9 days out of date.

Length 14 m.

Type: Pleasure craft. MMSI: 316017604.

Date/timePositionNaut miles runAvg speedWind from/ knotsBaromVisibWave heightAir tempDewpointWater temp
2014-Sep-22 20:33N 48°39' W 122°36'7 7.4
2014-Sep-22 19:32N 48°36' W 122°47'8 8.0
2014-Sep-22 18:33N 48°33' W 122°57'3 3.0
2014-Sep-22 17:30N 48°34' W 123°01'6 5.3
2014-Sep-22 16:19N 48°37' W 123°10'37 1.4
2014-Sep-21 14:28N 49°07' W 123°43'1 0.1
2014-Sep-20 22:11N 49°08' W 123°43'2 2.6
2014-Sep-20 21:33N 49°10' W 123°42'7 7.5
2014-Sep-20 20:33N 49°13' W 123°52'8 7.6
2014-Sep-20 19:33N 49°17' W 124°02'8 7.4
2014-Sep-20 18:30N 49°20' W 124°12'17 7.5
2014-Sep-20 16:14N 49°28' W 124°36'4 0.2
2014-Sep-19 21:15N 49°30' W 124°41'4 5.1
2014-Sep-19 20:23N 49°34' W 124°44'7 7.4
2014-Sep-19 19:27N 49°40' W 124°48'14 7.3
2014-Sep-19 17:32N 49°51' W 125°01'  
2014-Sep-16 21:28N 50°50' W 127°18'8 8.3
2014-Sep-16 20:33N 50°54' W 127°28'8 8.0
2014-Sep-16 19:33N 51°00' W 127°36'8 7.8
2014-Sep-16 18:33N 51°06' W 127°45'  
Track history (hours):
 
Tides and Currents Weather Stations Pressure Air Temp Water Temp Dewpoint Dewpoint Depression Visibility Wind Speed Wind Dir Waves Ship Positions

Olim IV

Last reported at 2014-Sep-22 20:33 UTC. Time now 2014-Oct-02 12:39 UTC.
Position N 48°39' W 122°36'.
Warning: this ship's position is 9 days out of date.

Length 14 m.

Type: Pleasure craft. MMSI: 316017604.

Date/timePositionNaut miles runAvg speedWind from/ knotsBaromVisibWave heightAir tempDewpointWater temp
2014-Sep-22 20:33N 48°39' W 122°36'7 7.4
2014-Sep-22 19:32N 48°36' W 122°47'8 8.0
2014-Sep-22 18:33N 48°33' W 122°57'3 3.0
2014-Sep-22 17:30N 48°34' W 123°01'6 5.3
2014-Sep-22 16:19N 48°37' W 123°10'37 1.4
2014-Sep-21 14:28N 49°07' W 123°43'1 0.1
2014-Sep-20 22:11N 49°08' W 123°43'2 2.6
2014-Sep-20 21:33N 49°10' W 123°42'7 7.5
2014-Sep-20 20:33N 49°13' W 123°52'8 7.6
2014-Sep-20 19:33N 49°17' W 124°02'8 7.4
2014-Sep-20 18:30N 49°20' W 124°12'17 7.5
2014-Sep-20 16:14N 49°28' W 124°36'4 0.2
2014-Sep-19 21:15N 49°30' W 124°41'4 5.1
2014-Sep-19 20:23N 49°34' W 124°44'7 7.4
2014-Sep-19 19:27N 49°40' W 124°48'14 7.3
2014-Sep-19 17:32N 49°51' W 125°01'  
2014-Sep-16 21:28N 50°50' W 127°18'8 8.3
2014-Sep-16 20:33N 50°54' W 127°28'8 8.0
2014-Sep-16 19:33N 51°00' W 127°36'8 7.8
2014-Sep-16 18:33N 51°06' W 127°45'  

Dump ship's entire track history